Ka-Ho, Macao

4:58 PM CST on October 23, 2014 (GMT +0800)
Macau International | Change Station
CLOSE
Current Station
Airport
Location: Macau International,
Elevation: 374 ft
Nearby Weather Stations

Elev 374 ft 22.16 °N, 113.57 °E | Updated 28 minutes ago

Scattered Clouds
Scattered Clouds
77 °F
Feels Like 77 °F
N
6
Wind Variable Wind from North

Today
High -- | Low -- °F
--% Chance of Precip.
Yesterday
High -- | Low -- °F
Precip. -- in
6:24 AM 5:54 PM
Waning Crescent, 0% visible
Pressure 29.95 in
Visibility 5.0 miles
Clouds Few 2000 ft
Scattered Clouds 3500 ft
Dew Point 66 °F
Humidity 69%
Rainfall 0.00 in
Snow Depth Not available.
UV 1 out of 12
Pollen Not available.
Air Quality Not available.
Flu Activity Not available.
METAR VMMC 230830Z 01005KT 8000 FEW020 SCT035 25/19 Q1014 NOSIG

More Conditions Fewer Conditions

Pressure 29.95 in
Visibility 5.0 miles
Clouds Few 2000 ft
Scattered Clouds 3500 ft
Dew Point 66 °F
Humidity 69%
Rainfall 0.00 in
Snow Depth Not available.
UV 1 out of 12
Pollen Not available.
Air Quality Not available.
Flu Activity Not available.
METAR VMMC 230830Z 01005KT 8000 FEW020 SCT035 25/19 Q1014 NOSIG

More Conditions Fewer Conditions

10-Day Weather Forecast

Almanac

Astronomy

Oct. 23, 2014 Rise Set
Actual Time 6:24 AM CST 5:54 PM CST
Civil Twilight 6:02 AM CST 6:17 PM CST
Nautical Twilight 5:36 AM CST 6:43 PM CST
Astronomical Twilight 5:09 AM CST 7:09 PM CST
Moon 5:37 AM CST 5:32 PM CST
Length of Visible Light 12h 15m
Length of Day
11h 29m
Tomorrow will be 1m 11s shorter.
Waning Crescent, 0% of the Moon is Illuminated
Today
Waning Crescent
Oct 23
New
Oct 30
First Quarter
Nov 6
Full
Nov 14
Last Quarter

Yesterday's Extremes

Country Highs Country Lows

Community

WunderPhotos

Upload Photos

1,764,197 photos uploaded!

Nearby

Snow Depth

Not available.

Earthquake Activity

City Distance Mag. Time & Date
No recent earthquake activity has been reported nearby.
Minimum magnitude displayed is 2.5.

Coastal Water Temperatures

Place Temperature
No Stations Reporting

Nearby Weather Stations